createdAt,value
2019-01-19T00:01:44.836Z,0.0
2019-01-19T00:03:44.846Z,0.0
2019-01-19T00:06:38.811Z,0.0
2019-01-19T00:09:38.115Z,0.0
2019-01-19T00:12:37.657Z,0.0
2019-01-19T00:15:39.357Z,0.0
2019-01-19T00:21:18.729Z,0.0
2019-01-19T00:22:13.791Z,0.0
2019-01-19T00:24:36.023Z,0.0
2019-01-19T00:27:35.162Z,0.0
2019-01-19T00:30:42.145Z,0.0
2019-01-19T00:33:55.921Z,0.0
2019-01-19T00:36:36.627Z,0.0
2019-01-19T00:41:37.203Z,0.0
2019-01-19T00:42:34.740Z,0.0
2019-01-19T00:46:54.401Z,0.0
2019-01-19T00:48:41.397Z,0.0
2019-01-19T00:51:36.956Z,0.0
2019-01-19T00:54:35.213Z,0.0
2019-01-19T00:58:11.135Z,0.0
2019-01-19T01:00:33.029Z,0.0
2019-01-19T01:03:37.329Z,0.0
2019-01-19T01:06:51.065Z,0.0
2019-01-19T01:11:39.433Z,0.0
2019-01-19T01:12:56.444Z,0.0
2019-01-19T01:15:39.524Z,0.0
2019-01-19T01:18:50.343Z,0.0
2019-01-19T01:21:41.399Z,0.0
2019-01-19T01:25:42.436Z,0.0
2019-01-19T01:27:37.329Z,0.0
2019-01-19T01:30:36.835Z,0.0
2019-01-19T01:35:38.162Z,0.0
2019-01-19T01:36:44.739Z,0.0
2019-01-19T01:39:42.259Z,0.0
2019-01-19T01:43:45.609Z,0.0
2019-01-19T01:47:50.273Z,0.0
2019-01-19T01:48:52.342Z,0.0
2019-01-19T01:51:36.773Z,0.0
2019-01-19T01:54:42.347Z,0.0
2019-01-19T01:57:33.653Z,0.0
2019-01-19T02:01:39.965Z,0.0
2019-01-19T02:05:45.805Z,0.0
2019-01-19T02:06:39.518Z,0.0
2019-01-19T02:11:44.022Z,0.0
2019-01-19T02:12:50.621Z,0.0
2019-01-19T02:17:42.370Z,0.0
2019-01-19T02:20:46.884Z,0.0
2019-01-19T02:21:48.995Z,0.0
2019-01-19T02:24:58.232Z,0.0
2019-01-19T02:27:37.589Z,0.0
2019-01-19T02:31:48.641Z,0.0
2019-01-19T02:33:43.889Z,0.0
2019-01-19T02:36:58.491Z,0.0
2019-01-19T02:39:37.871Z,0.0
2019-01-19T02:44:35.132Z,0.0
2019-01-19T02:47:44.974Z,0.0
2019-01-19T02:50:38.581Z,0.0
2019-01-19T02:51:50.212Z,0.0
2019-01-19T02:56:52.396Z,0.0
2019-01-19T02:58:40.392Z,0.0
2019-01-19T03:00:47.018Z,0.0
2019-01-19T03:03:46.894Z,0.0
2019-01-19T03:07:48.142Z,0.0
2019-01-19T03:09:43.060Z,0.0
2019-01-19T03:12:38.138Z,0.0
2019-01-19T03:15:47.533Z,0.0
2019-01-19T03:18:39.059Z,0.0
2019-01-19T03:22:38.792Z,0.0
2019-01-19T03:24:56.220Z,0.0
2019-01-19T03:29:48.771Z,0.0
2019-01-19T03:32:37.718Z,0.0
2019-01-19T03:35:36.978Z,0.0
2019-01-19T03:36:42.390Z,0.0
2019-01-19T03:39:39.549Z,0.0
2019-01-19T03:42:54.364Z,0.0
2019-01-19T03:45:45.530Z,0.0
2019-01-19T03:48:38.718Z,0.0
2019-01-19T03:51:36.862Z,0.0
2019-01-19T03:54:39.322Z,0.0
2019-01-19T03:59:40.807Z,0.0
2019-01-19T04:01:11.229Z,0.0
2019-01-19T04:05:39.107Z,0.0
2019-01-19T04:08:33.250Z,0.0
2019-01-19T04:10:45.494Z,0.0
2019-01-19T04:12:52.496Z,0.0
2019-01-19T04:17:41.124Z,0.0
2019-01-19T04:18:51.369Z,0.0
2019-01-19T04:21:49.811Z,0.0
2019-01-19T04:24:38.438Z,0.0
2019-01-19T04:27:28.927Z,0.0
2019-01-19T04:30:28.494Z,0.0
2019-01-19T04:33:28.867Z,0.0
2019-01-19T04:36:35.330Z,0.0
2019-01-19T04:39:28.937Z,0.0
2019-01-19T04:42:28.872Z,0.0
2019-01-19T04:45:28.672Z,0.0
2019-01-19T04:48:28.168Z,0.0
2019-01-19T04:51:28.652Z,0.0
2019-01-19T04:54:28.128Z,0.0
2019-01-19T04:57:28.795Z,0.0
2019-01-19T05:00:28.596Z,0.0
2019-01-19T05:03:28.731Z,0.0
2019-01-19T05:06:30.667Z,0.0
2019-01-19T05:09:28.049Z,0.0
2019-01-19T05:12:28.396Z,0.0
2019-01-19T05:15:28.884Z,0.0
2019-01-19T05:18:28.468Z,0.0
2019-01-19T05:21:29.194Z,0.0
2019-01-19T05:24:28.592Z,0.0
2019-01-19T05:27:28.640Z,0.0
2019-01-19T05:30:28.491Z,0.0
2019-01-19T05:33:28.421Z,0.0
2019-01-19T05:36:38.039Z,0.0
2019-01-19T05:39:28.178Z,0.0
2019-01-19T05:42:28.808Z,0.0
2019-01-19T05:45:29.050Z,0.0
2019-01-19T05:48:28.819Z,0.0
2019-01-19T05:51:29.108Z,0.0
2019-01-19T05:54:28.676Z,0.0
2019-01-19T05:57:28.452Z,0.0
2019-01-19T06:00:37.409Z,0.0
2019-01-19T06:03:28.688Z,0.0
2019-01-19T06:06:28.298Z,0.0
2019-01-19T06:09:28.635Z,0.0
2019-01-19T06:12:28.069Z,0.0
2019-01-19T06:15:28.482Z,0.0
2019-01-19T06:18:28.923Z,0.0
2019-01-19T06:21:32.054Z,0.0
2019-01-19T06:24:28.833Z,0.0
2019-01-19T06:27:28.171Z,0.0
2019-01-19T06:30:28.662Z,0.0
2019-01-19T06:33:28.137Z,0.0
2019-01-19T06:36:28.750Z,0.0
2019-01-19T06:39:28.737Z,0.0
2019-01-19T06:42:28.420Z,0.0
2019-01-19T06:45:29.602Z,0.0
2019-01-19T06:48:28.299Z,0.0
2019-01-19T06:51:28.821Z,0.0
2019-01-19T06:54:29.410Z,0.0
2019-01-19T06:57:28.816Z,0.0
2019-01-19T07:00:28.587Z,0.0
2019-01-19T07:03:28.231Z,0.0
2019-01-19T07:06:29.056Z,0.0
2019-01-19T07:09:29.178Z,0.01
2019-01-19T07:12:29.169Z,0.0
2019-01-19T07:15:28.699Z,0.0
2019-01-19T07:18:28.296Z,0.02
2019-01-19T07:21:28.878Z,0.0
2019-01-19T07:24:28.741Z,0.02
2019-01-19T07:27:28.261Z,0.0
2019-01-19T07:30:30.074Z,0.0
2019-01-19T07:33:28.571Z,0.04
2019-01-19T07:36:29.143Z,0.04
2019-01-19T07:39:29.544Z,0.0
2019-01-19T07:42:28.309Z,0.05
2019-01-19T07:45:29.001Z,0.06
2019-01-19T07:48:28.701Z,0.02
2019-01-19T07:51:28.691Z,0.07
2019-01-19T07:54:29.842Z,0.08
2019-01-19T07:57:31.496Z,0.1
2019-01-19T08:00:30.684Z,0.05
2019-01-19T08:03:28.298Z,0.05
2019-01-19T08:06:28.682Z,0.05
2019-01-19T08:09:28.000Z,0.07
2019-01-19T08:12:28.990Z,0.12
2019-01-19T08:15:29.438Z,0.12
2019-01-19T08:18:28.221Z,0.14
2019-01-19T08:21:28.696Z,0.16
2019-01-19T08:24:28.359Z,0.29
2019-01-19T08:27:28.847Z,0.36
2019-01-19T08:30:30.172Z,0.22
2019-01-19T08:33:28.976Z,0.59
2019-01-19T08:36:28.991Z,0.95
2019-01-19T08:39:30.031Z,0.95
2019-01-19T08:42:28.853Z,1.02
2019-01-19T08:45:29.127Z,1.02
2019-01-19T08:48:29.281Z,1.25
2019-01-19T08:51:28.896Z,1.37
2019-01-19T08:54:28.510Z,1.31
2019-01-19T08:57:28.947Z,1.29
2019-01-19T09:00:28.663Z,1.08
2019-01-19T09:03:28.398Z,1.21
2019-01-19T09:06:29.049Z,1.41
2019-01-19T09:09:28.664Z,1.34
2019-01-19T09:12:28.250Z,1.44
2019-01-19T09:15:28.767Z,0.61
2019-01-19T09:18:28.585Z,1.15
2019-01-19T09:21:28.022Z,1.37
2019-01-19T09:24:30.543Z,1.36
2019-01-19T09:27:28.457Z,1.65
2019-01-19T09:30:29.070Z,1.04
2019-01-19T09:33:28.645Z,0.8
2019-01-19T09:36:28.206Z,1.01
2019-01-19T09:39:28.707Z,0.99
2019-01-19T09:42:28.059Z,1.48
2019-01-19T09:45:28.501Z,1.36
2019-01-19T09:48:28.964Z,1.43
2019-01-19T09:51:28.531Z,1.02
2019-01-19T09:54:28.861Z,1.16
2019-01-19T09:57:28.292Z,1.28
2019-01-19T10:00:35.503Z,0.62
2019-01-19T10:03:28.111Z,0.92
2019-01-19T10:06:28.492Z,0.84
2019-01-19T10:09:29.287Z,0.96
2019-01-19T10:12:28.687Z,0.87
2019-01-19T10:15:28.373Z,0.5
2019-01-19T10:18:29.018Z,0.44
2019-01-19T10:21:28.748Z,0.46
2019-01-19T10:24:28.021Z,0.22
2019-01-19T10:27:28.532Z,0.98
2019-01-19T10:30:29.270Z,0.73
2019-01-19T10:33:28.864Z,0.32
2019-01-19T10:36:28.530Z,0.32
2019-01-19T10:39:28.845Z,0.36
2019-01-19T10:42:29.476Z,0.36
2019-01-19T10:45:29.024Z,0.36
2019-01-19T10:48:28.544Z,0.3
2019-01-19T10:51:28.841Z,0.35
2019-01-19T10:54:28.592Z,0.31
2019-01-19T10:57:28.081Z,0.37
2019-01-19T11:00:30.528Z,0.34
2019-01-19T11:03:28.923Z,0.32
2019-01-19T11:06:28.437Z,0.32
2019-01-19T11:09:29.083Z,0.31
2019-01-19T11:12:28.784Z,0.36
2019-01-19T11:15:28.795Z,0.36
2019-01-19T11:18:28.263Z,0.34
2019-01-19T11:21:28.729Z,0.34
2019-01-19T11:24:28.300Z,0.32
2019-01-19T11:27:28.901Z,0.32
2019-01-19T11:30:30.361Z,0.32
2019-01-19T11:33:29.215Z,0.31
2019-01-19T11:36:29.233Z,0.31
2019-01-19T11:39:29.443Z,0.26
2019-01-19T11:42:29.263Z,0.3
2019-01-19T11:45:28.958Z,0.3
2019-01-19T11:48:28.975Z,0.25
2019-01-19T11:51:28.462Z,0.29
2019-01-19T11:54:28.078Z,0.25
2019-01-19T11:57:28.623Z,0.28
2019-01-19T12:00:30.810Z,0.33
2019-01-19T12:03:28.875Z,0.34
2019-01-19T12:06:28.858Z,0.28
2019-01-19T12:09:28.474Z,0.33
2019-01-19T12:12:28.996Z,0.28
2019-01-19T12:15:28.972Z,0.27
2019-01-19T12:18:28.690Z,0.27
2019-01-19T12:21:28.323Z,0.27
2019-01-19T12:24:29.113Z,0.26
2019-01-19T12:27:28.752Z,0.29
2019-01-19T12:30:30.353Z,0.29
2019-01-19T12:33:28.884Z,0.28
2019-01-19T12:36:28.595Z,0.24
2019-01-19T12:39:33.472Z,0.28
2019-01-19T12:42:29.147Z,0.23
2019-01-19T12:45:31.926Z,0.29
2019-01-19T12:48:28.502Z,0.29
2019-01-19T12:51:29.250Z,0.28
2019-01-19T12:54:29.422Z,0.23
2019-01-19T12:57:30.310Z,0.23
2019-01-19T13:00:29.415Z,0.27
2019-01-19T13:03:29.674Z,0.27
2019-01-19T13:07:08.578Z,0.2
2019-01-19T13:09:32.227Z,0.26
2019-01-19T13:12:32.683Z,0.21
2019-01-19T13:17:30.366Z,0.21
2019-01-19T13:18:39.149Z,0.25
2019-01-19T13:23:44.943Z,0.23
2019-01-19T13:24:51.388Z,0.23
2019-01-19T13:29:42.388Z,0.19
2019-01-19T13:30:39.936Z,0.23
2019-01-19T13:35:46.219Z,0.18
2019-01-19T13:36:45.191Z,0.18
2019-01-19T13:39:37.640Z,0.22
2019-01-19T13:44:38.405Z,0.21
2019-01-19T13:45:35.680Z,0.17
2019-01-19T13:48:44.438Z,0.2
2019-01-19T13:51:50.949Z,0.14
2019-01-19T13:56:40.331Z,0.16
2019-01-19T13:57:54.490Z,0.1
2019-01-19T14:02:44.021Z,0.16
2019-01-19T14:03:38.832Z,0.15
2019-01-19T14:06:58.424Z,0.1
2019-01-19T14:11:36.335Z,0.16
2019-01-19T14:14:40.678Z,0.12
2019-01-19T14:15:35.838Z,0.12
2019-01-19T14:18:39.973Z,0.16
2019-01-19T14:23:38.195Z,0.1
2019-01-19T14:24:57.938Z,0.16
2019-01-19T14:27:49.113Z,0.16
2019-01-19T14:31:45.216Z,0.15
2019-01-19T14:33:41.052Z,0.1
2019-01-19T14:37:22.870Z,0.1
2019-01-19T14:39:40.315Z,0.09
2019-01-19T14:42:40.142Z,0.13
2019-01-19T14:45:53.105Z,0.12
2019-01-19T14:50:41.341Z,0.07
2019-01-19T14:51:37.548Z,0.07
2019-01-19T14:55:09.834Z,0.05
2019-01-19T14:57:51.813Z,0.1
2019-01-19T15:00:55.625Z,0.09
2019-01-19T15:03:54.926Z,0.08
2019-01-19T15:08:36.517Z,0.06
2019-01-19T15:11:40.822Z,0.02
2019-01-19T15:12:48.739Z,0.02
2019-01-19T15:15:38.964Z,0.02
2019-01-19T15:18:52.626Z,0.05
2019-01-19T15:21:37.274Z,0.05
2019-01-19T15:25:13.013Z,0.04
2019-01-19T15:29:00.006Z,0.0
2019-01-19T15:32:45.948Z,0.03
2019-01-19T15:33:40.916Z,0.03
2019-01-19T15:38:38.782Z,0.0
2019-01-19T15:39:37.026Z,0.02
2019-01-19T15:42:38.191Z,0.0
2019-01-19T15:47:51.724Z,0.0
2019-01-19T15:48:45.802Z,0.0
2019-01-19T15:52:42.877Z,0.0
2019-01-19T15:54:54.120Z,0.0
2019-01-19T15:57:33.870Z,0.01
2019-01-19T16:00:39.431Z,0.01
2019-01-19T16:03:55.275Z,0.0
2019-01-19T16:06:51.382Z,0.01
2019-01-19T16:10:34.598Z,0.0
2019-01-19T16:14:39.414Z,0.0
2019-01-19T16:15:51.155Z,0.0
2019-01-19T16:21:18.849Z,0.0
2019-01-19T16:21:57.144Z,0.0
2019-01-19T16:24:46.349Z,0.0
2019-01-19T16:29:35.334Z,0.0
2019-01-19T16:32:39.706Z,0.0
2019-01-19T16:33:42.221Z,0.0
2019-01-19T16:36:55.573Z,0.0
2019-01-19T16:39:43.092Z,0.0
2019-01-19T16:42:39.835Z,0.0
2019-01-19T16:45:36.135Z,0.0
2019-01-19T16:49:42.494Z,0.0
2019-01-19T16:53:39.204Z,0.0
2019-01-19T16:54:40.085Z,0.0
2019-01-19T16:57:49.563Z,0.0
2019-01-19T17:01:46.728Z,0.0
2019-01-19T17:03:44.555Z,0.0
2019-01-19T17:07:14.867Z,0.0
2019-01-19T17:09:34.996Z,0.0
2019-01-19T17:14:48.917Z,0.0
2019-01-19T17:17:37.887Z,0.0
2019-01-19T17:18:39.810Z,0.0
2019-01-19T17:22:49.272Z,0.0
2019-01-19T17:24:40.662Z,0.0
2019-01-19T17:27:35.185Z,0.0
2019-01-19T17:32:39.022Z,0.0
2019-01-19T17:35:38.292Z,0.0
2019-01-19T17:38:00.361Z,0.0
2019-01-19T17:41:41.832Z,0.0
2019-01-19T17:43:09.054Z,0.0
2019-01-19T17:46:59.073Z,0.0
2019-01-19T17:48:43.920Z,0.0
2019-01-19T17:51:38.655Z,0.0
2019-01-19T17:56:49.671Z,0.0
2019-01-19T17:59:58.382Z,0.0
2019-01-19T18:02:56.678Z,0.0
2019-01-19T18:03:48.439Z,0.0
2019-01-19T18:08:49.893Z,0.0
2019-01-19T18:10:43.420Z,0.0
2019-01-19T18:12:40.571Z,0.0
2019-01-19T18:15:59.185Z,0.0
2019-01-19T18:19:14.457Z,0.0
2019-01-19T18:24:14.626Z,0.0
2019-01-19T18:30:20.096Z,0.0
2019-01-19T18:31:23.533Z,0.0
2019-01-19T18:33:38.435Z,0.0
2019-01-19T18:36:47.265Z,0.0
2019-01-19T18:40:32.125Z,0.0
2019-01-19T18:42:46.802Z,0.0
2019-01-19T18:47:50.846Z,0.0
2019-01-19T18:49:56.882Z,0.0
2019-01-19T18:53:44.372Z,0.0
2019-01-19T18:55:05.274Z,0.0
2019-01-19T18:59:36.366Z,0.0
2019-01-19T19:01:43.692Z,0.0
2019-01-19T19:04:30.671Z,0.0
2019-01-19T19:08:24.503Z,0.0
2019-01-19T19:10:06.255Z,0.0
2019-01-19T19:13:25.483Z,0.0
2019-01-19T19:16:18.367Z,0.0
2019-01-19T19:19:11.914Z,0.0
2019-01-19T19:22:19.315Z,0.0
2019-01-19T19:26:49.567Z,0.0
2019-01-19T19:29:49.746Z,0.0
2019-01-19T19:31:18.465Z,0.0
2019-01-19T19:37:51.865Z,0.0
2019-01-19T19:39:40.589Z,0.0
2019-01-19T19:42:40.481Z,0.0
2019-01-19T19:45:43.135Z,0.0
2019-01-19T19:49:31.670Z,0.0
2019-01-19T19:52:07.457Z,0.0
2019-01-19T19:54:32.600Z,0.0
2019-01-19T19:57:40.774Z,0.0
2019-01-19T20:00:30.411Z,0.0
2019-01-19T20:03:45.720Z,0.0
2019-01-19T20:06:44.464Z,0.0
2019-01-19T20:09:34.244Z,0.0
2019-01-19T20:12:54.334Z,0.0
2019-01-19T20:15:34.979Z,0.0
2019-01-19T20:18:29.196Z,0.0
2019-01-19T20:21:30.389Z,0.0
2019-01-19T20:27:38.975Z,0.0
2019-01-19T20:30:34.918Z,0.0
2019-01-19T20:33:31.649Z,0.0
2019-01-19T20:36:43.399Z,0.0
2019-01-19T20:39:40.012Z,0.0
2019-01-19T20:42:40.378Z,0.0
2019-01-19T20:45:39.463Z,0.0
2019-01-19T20:48:38.425Z,0.0
2019-01-19T20:52:00.285Z,0.0
2019-01-19T20:54:36.313Z,0.0
2019-01-19T20:57:35.960Z,0.0
2019-01-19T21:00:49.249Z,0.0
2019-01-19T21:03:29.685Z,0.0
2019-01-19T21:06:28.165Z,0.0
2019-01-19T21:09:28.551Z,0.0
2019-01-19T21:12:29.169Z,0.0
2019-01-19T21:15:28.871Z,0.0
2019-01-19T21:18:28.454Z,0.0
2019-01-19T21:21:29.186Z,0.0
2019-01-19T21:24:29.060Z,0.0
2019-01-19T21:27:28.634Z,0.0
2019-01-19T21:30:28.141Z,0.0
2019-01-19T21:33:28.712Z,0.0
2019-01-19T21:36:28.642Z,0.0
2019-01-19T21:39:28.152Z,0.0
2019-01-19T21:42:28.691Z,0.0
2019-01-19T21:45:28.239Z,0.0
2019-01-19T21:48:28.658Z,0.0
2019-01-19T21:51:28.131Z,0.0
2019-01-19T21:54:28.678Z,0.0
2019-01-19T21:57:28.160Z,0.0
2019-01-19T22:00:28.715Z,0.0
2019-01-19T22:03:28.311Z,0.0
2019-01-19T22:06:28.752Z,0.0
2019-01-19T22:09:28.514Z,0.0
2019-01-19T22:12:28.368Z,0.0
2019-01-19T22:15:28.722Z,0.0
2019-01-19T22:18:28.428Z,0.0
2019-01-19T22:21:28.990Z,0.0
2019-01-19T22:24:28.398Z,0.0
2019-01-19T22:27:28.992Z,0.0
2019-01-19T22:30:28.880Z,0.0
2019-01-19T22:33:28.873Z,0.0
2019-01-19T22:36:28.270Z,0.0
2019-01-19T22:39:28.652Z,0.0
2019-01-19T22:42:28.274Z,0.0
2019-01-19T22:45:28.659Z,0.0
2019-01-19T22:48:28.022Z,0.0
2019-01-19T22:51:28.788Z,0.0
2019-01-19T22:54:28.195Z,0.0
2019-01-19T22:57:28.746Z,0.0
2019-01-19T23:00:39.972Z,0.0
2019-01-19T23:03:31.186Z,0.0
2019-01-19T23:06:28.642Z,0.0
2019-01-19T23:09:28.273Z,0.0
2019-01-19T23:12:28.177Z,0.0
2019-01-19T23:15:28.842Z,0.0
2019-01-19T23:18:28.418Z,0.0
2019-01-19T23:21:29.119Z,0.0
2019-01-19T23:24:28.632Z,0.0
2019-01-19T23:27:28.058Z,0.0
2019-01-19T23:30:28.552Z,0.0
2019-01-19T23:33:28.935Z,0.0
2019-01-19T23:36:29.158Z,0.0
2019-01-19T23:39:28.541Z,0.0
2019-01-19T23:42:29.030Z,0.0
2019-01-19T23:45:28.584Z,0.0
2019-01-19T23:48:28.398Z,0.0
2019-01-19T23:51:28.900Z,0.0
2019-01-19T23:54:28.308Z,0.0
2019-01-19T23:57:28.920Z,0.0
